createdAt,value
2022-08-24T00:00:35.566Z,56.15
2022-08-24T00:03:40.973Z,59.05
2022-08-24T00:06:44.350Z,60.10
2022-08-24T00:09:50.594Z,60.28
2022-08-24T00:12:55.715Z,53.67
2022-08-24T00:15:58.988Z,53.20
2022-08-24T00:19:03.275Z,50.88
2022-08-24T00:22:07.366Z,51.00
2022-08-24T00:25:12.044Z,51.22
2022-08-24T00:28:16.901Z,56.58
2022-08-24T00:31:20.247Z,61.67
2022-08-24T00:34:23.656Z,58.17
2022-08-24T00:37:27.415Z,66.57
2022-08-24T00:40:34.928Z,61.33
2022-08-24T00:43:39.634Z,51.25
2022-08-24T00:46:46.956Z,55.50
2022-08-24T00:49:57.738Z,63.90
2022-08-24T00:53:05.594Z,51.35
2022-08-24T00:56:14.168Z,66.20
2022-08-24T00:59:23.485Z,50.33
2022-08-24T01:02:32.403Z,56.80
2022-08-24T01:05:38.155Z,51.78
2022-08-24T01:08:42.065Z,55.88
2022-08-24T01:11:46.091Z,55.03
2022-08-24T01:14:50.892Z,46.00
2022-08-24T01:18:23.055Z,57.15
2022-08-24T01:21:32.772Z,48.45
2022-08-24T01:24:39.029Z,50.95
2022-08-24T01:27:43.844Z,47.75
2022-08-24T01:30:48.083Z,52.53
2022-08-24T01:33:53.102Z,63.88
2022-08-24T01:36:58.098Z,55.60
2022-08-24T01:40:06.812Z,49.28
2022-08-24T01:43:10.429Z,56.00
2022-08-24T01:46:13.756Z,52.03
2022-08-24T01:49:17.869Z,52.70
2022-08-24T01:52:24.480Z,59.42
2022-08-24T01:55:30.588Z,41.60
2022-08-24T01:58:34.035Z,49.55
2022-08-24T02:01:40.832Z,48.05
2022-08-24T02:04:44.427Z,52.08
2022-08-24T02:07:48.788Z,58.50
2022-08-24T02:10:56.365Z,44.60
2022-08-24T02:14:01.019Z,53.28
2022-08-24T02:17:05.727Z,50.50
2022-08-24T02:20:10.542Z,53.95
2022-08-24T02:23:14.560Z,52.17
2022-08-24T02:26:20.160Z,48.72
2022-08-24T02:29:23.789Z,54.55
2022-08-24T02:32:27.233Z,60.63
2022-08-24T02:35:31.369Z,48.78
2022-08-24T02:38:35.257Z,52.88
2022-08-24T02:41:41.931Z,53.00
2022-08-24T02:44:45.418Z,50.17
2022-08-24T02:47:49.364Z,55.90
2022-08-24T02:50:54.045Z,41.17
2022-08-24T02:53:59.316Z,49.05
2022-08-24T02:57:04.449Z,43.83
2022-08-24T03:00:11.635Z,48.03
2022-08-24T03:03:21.224Z,54.88
2022-08-24T03:06:24.580Z,43.17
2022-08-24T03:09:28.803Z,46.30
2022-08-24T03:12:35.734Z,47.45
2022-08-24T03:15:39.225Z,55.50
2022-08-24T03:18:42.665Z,45.60
2022-08-24T03:21:47.630Z,50.90
2022-08-24T03:24:50.893Z,53.63
2022-08-24T03:27:55.697Z,49.33
2022-08-24T03:30:59.177Z,49.33
2022-08-24T03:34:02.929Z,53.13
2022-08-24T03:37:06.478Z,63.80
2022-08-24T03:40:23.091Z,56.90
2022-08-24T03:43:48.672Z,52.92
2022-08-24T03:46:57.384Z,45.35
2022-08-24T03:50:02.707Z,63.33
2022-08-24T03:53:08.603Z,49.25
2022-08-24T03:56:12.587Z,61.53
2022-08-24T03:59:20.100Z,51.72
2022-08-24T04:02:31.112Z,59.40
2022-08-24T04:08:40.212Z,46.80
2022-08-24T04:11:46.041Z,49.22
2022-08-24T04:14:55.851Z,61.28
2022-08-24T04:18:00.514Z,55.20
2022-08-24T04:21:04.672Z,44.67
2022-08-24T04:24:10.429Z,50.97
2022-08-24T04:27:13.737Z,47.83
2022-08-24T04:30:18.542Z,39.92
2022-08-24T04:33:49.798Z,52.63
2022-08-24T04:36:57.899Z,54.05
2022-08-24T04:40:03.366Z,53.92
2022-08-24T04:43:20.122Z,60.10
2022-08-24T04:55:51.142Z,73.53
2022-08-24T04:59:37.923Z,69.03
2022-08-24T05:03:26.535Z,63.08
2022-08-24T05:06:34.030Z,61.75
2022-08-24T05:09:37.363Z,68.25
2022-08-24T05:12:44.230Z,62.67
2022-08-24T05:15:49.666Z,54.90
2022-08-24T05:18:54.678Z,72.43
2022-08-24T05:21:58.635Z,65.75
2022-08-24T05:25:02.552Z,75.57
2022-08-24T05:28:07.884Z,58.05
2022-08-24T05:31:13.801Z,67.80
2022-08-24T05:34:19.427Z,60.58
2022-08-24T05:37:23.076Z,70.00
2022-08-24T05:40:42.554Z,65.10
2022-08-24T05:43:47.894Z,51.70
2022-08-24T05:46:51.683Z,75.35
2022-08-24T05:49:55.112Z,55.13
2022-08-24T05:52:58.815Z,63.03
2022-08-24T05:56:04.657Z,69.85
2022-08-24T05:59:19.780Z,57.47
2022-08-24T06:02:24.809Z,77.45
2022-08-24T06:05:28.360Z,60.65
2022-08-24T06:08:32.241Z,112.18
2022-08-24T06:11:38.475Z,67.35
2022-08-24T06:14:47.611Z,72.63
2022-08-24T06:17:53.265Z,87.22
2022-08-24T06:20:57.921Z,67.35
2022-08-24T06:24:02.488Z,64.72
2022-08-24T06:27:23.973Z,58.72
2022-08-24T06:30:31.940Z,56.97
2022-08-24T06:34:08.154Z,75.40
2022-08-24T06:37:11.671Z,67.53
2022-08-24T06:40:15.328Z,83.35
2022-08-24T06:43:19.042Z,59.97
2022-08-24T06:46:32.739Z,66.50
2022-08-24T06:49:37.318Z,65.82
2022-08-24T06:52:41.042Z,74.38
2022-08-24T06:55:48.233Z,65.22
2022-08-24T06:58:53.142Z,60.13
2022-08-24T07:01:58.517Z,77.63
2022-08-24T07:05:04.369Z,83.63
2022-08-24T07:08:26.571Z,76.35
2022-08-24T07:11:30.238Z,72.95
2022-08-24T07:14:33.650Z,73.63
2022-08-24T07:17:39.953Z,72.43
2022-08-24T07:20:45.172Z,86.15
2022-08-24T07:23:57.352Z,63.85
2022-08-24T07:27:01.759Z,64.80
2022-08-24T07:30:25.807Z,60.60
2022-08-24T07:33:32.067Z,62.63
2022-08-24T07:36:38.047Z,53.58
2022-08-24T07:39:46.587Z,72.50
2022-08-24T07:42:50.778Z,63.58
2022-08-24T07:45:55.242Z,59.55
2022-08-24T07:49:11.334Z,47.28
2022-08-24T07:52:23.546Z,60.83
2022-08-24T07:55:27.718Z,49.92
2022-08-24T07:58:32.145Z,64.65
2022-08-24T08:01:35.569Z,53.55
2022-08-24T08:04:40.413Z,39.88
2022-08-24T08:07:45.695Z,38.83
2022-08-24T08:10:50.318Z,49.65
2022-08-24T08:13:54.416Z,47.47
2022-08-24T08:16:58.082Z,40.50
2022-08-24T08:20:03.003Z,41.00
2022-08-24T08:23:23.804Z,39.85
2022-08-24T08:26:50.543Z,27.85
2022-08-24T08:30:01.792Z,33.13
2022-08-24T08:33:06.013Z,46.58
2022-08-24T08:36:15.104Z,34.08
2022-08-24T08:39:26.892Z,38.25
2022-08-24T08:43:01.379Z,59.42
2022-08-24T08:46:21.040Z,31.92
2022-08-24T08:50:07.167Z,48.30
2022-08-24T08:53:45.471Z,30.65
2022-08-24T08:57:12.242Z,55.97
2022-08-24T09:00:23.708Z,51.95
2022-08-24T09:04:01.700Z,36.33
2022-08-24T09:07:28.722Z,36.42
2022-08-24T09:10:55.668Z,35.50
2022-08-24T09:14:28.374Z,43.42
2022-08-24T09:17:46.373Z,42.67
2022-08-24T09:21:15.221Z,43.67
2022-08-24T09:24:32.759Z,35.92
2022-08-24T09:28:14.510Z,41.28
2022-08-24T09:31:43.513Z,46.83
2022-08-24T09:34:57.146Z,32.47
2022-08-24T09:38:10.414Z,62.08
2022-08-24T09:41:51.763Z,73.05
2022-08-24T09:45:36.873Z,38.28
2022-08-24T09:49:05.894Z,38.92
2022-08-24T09:52:31.650Z,45.43
2022-08-24T09:56:06.010Z,40.45
2022-08-24T09:59:29.669Z,35.72
2022-08-24T10:02:48.996Z,37.80
2022-08-24T10:06:11.691Z,38.15
2022-08-24T10:09:56.118Z,36.20
2022-08-24T10:13:10.205Z,38.72
2022-08-24T10:16:29.025Z,41.03
2022-08-24T10:19:49.641Z,42.75
2022-08-24T10:23:28.960Z,44.58
2022-08-24T10:26:41.422Z,45.83
2022-08-24T10:30:11.250Z,42.63
2022-08-24T10:33:21.869Z,33.67
2022-08-24T10:37:09.705Z,47.85
2022-08-24T10:40:40.317Z,50.70
2022-08-24T10:44:18.381Z,46.25
2022-08-24T10:47:26.811Z,37.35
2022-08-24T10:50:41.942Z,39.38
2022-08-24T10:53:50.953Z,39.70
2022-08-24T10:57:02.809Z,34.33
2022-08-24T11:00:11.899Z,40.22
2022-08-24T11:03:27.956Z,44.28
2022-08-24T11:06:35.093Z,43.13
2022-08-24T11:09:47.907Z,34.70
2022-08-24T11:12:54.756Z,43.88
2022-08-24T11:16:03.075Z,39.90
2022-08-24T11:19:13.192Z,32.33
2022-08-24T11:22:43.101Z,36.08
2022-08-24T11:25:57.400Z,49.13
2022-08-24T11:29:10.583Z,48.95
2022-08-24T11:32:30.881Z,36.47
2022-08-24T11:35:43.433Z,48.45
2022-08-24T11:38:47.179Z,41.17
2022-08-24T11:41:57.332Z,44.95
2022-08-24T11:45:11.266Z,52.88
2022-08-24T11:48:29.674Z,36.10
2022-08-24T11:51:42.504Z,52.30
2022-08-24T11:54:51.301Z,43.53
2022-08-24T11:58:02.398Z,46.05
2022-08-24T12:01:18.757Z,50.95
2022-08-24T12:04:39.342Z,50.05
2022-08-24T12:07:54.530Z,44.70
2022-08-24T12:11:12.130Z,59.17
2022-08-24T12:14:23.063Z,63.10
2022-08-24T12:17:33.852Z,44.00
2022-08-24T12:20:42.206Z,47.75
2022-08-24T12:23:49.946Z,48.10
2022-08-24T12:26:58.120Z,52.80
2022-08-24T12:30:12.024Z,56.25
2022-08-24T12:33:20.332Z,52.85
2022-08-24T12:36:30.149Z,50.97
2022-08-24T12:39:39.279Z,57.05
2022-08-24T12:42:52.237Z,76.63
2022-08-24T12:45:59.981Z,65.55
2022-08-24T12:49:15.647Z,58.92
2022-08-24T12:52:36.558Z,57.25
2022-08-24T12:56:14.403Z,66.05
2022-08-24T12:59:23.707Z,54.80
2022-08-24T13:02:33.720Z,65.90
2022-08-24T13:05:45.098Z,64.93
2022-08-24T13:08:51.894Z,54.45
2022-08-24T13:11:56.915Z,71.07
2022-08-24T13:15:26.079Z,62.75
2022-08-24T13:18:50.575Z,69.07
2022-08-24T13:22:02.682Z,68.80
2022-08-24T13:25:42.638Z,59.60
2022-08-24T13:28:49.384Z,62.80
2022-08-24T13:32:00.972Z,73.65
2022-08-24T13:35:53.569Z,72.30
2022-08-24T13:39:13.587Z,87.10
2022-08-24T13:42:31.616Z,81.45
2022-08-24T13:45:42.719Z,77.18
2022-08-24T13:48:56.346Z,80.10
2022-08-24T13:52:15.104Z,73.50
2022-08-24T13:55:37.164Z,68.78
2022-08-24T13:58:46.292Z,70.57
2022-08-24T14:05:10.595Z,75.45
2022-08-24T14:08:37.464Z,80.28
2022-08-24T14:12:00.171Z,77.30
2022-08-24T14:15:24.542Z,77.65
2022-08-24T14:18:35.840Z,77.65
2022-08-24T14:21:45.812Z,81.05
2022-08-24T14:24:56.971Z,67.55
2022-08-24T14:28:37.304Z,75.68
2022-08-24T14:31:41.189Z,66.70
2022-08-24T14:34:56.435Z,65.30
2022-08-24T14:38:26.436Z,59.28
2022-08-24T14:41:50.422Z,74.88
2022-08-24T14:45:05.334Z,76.97
2022-08-24T14:48:20.703Z,86.90
2022-08-24T14:51:44.976Z,85.63
2022-08-24T14:55:02.338Z,82.28
2022-08-24T14:58:29.097Z,79.20
2022-08-24T15:01:42.943Z,76.43
2022-08-24T15:04:53.919Z,74.78
2022-08-24T15:08:01.668Z,79.20
2022-08-24T15:11:09.971Z,75.10
2022-08-24T15:14:33.683Z,76.70
2022-08-24T15:17:59.375Z,70.50
2022-08-24T15:21:13.561Z,82.18
2022-08-24T15:24:31.388Z,72.18
2022-08-24T15:27:44.741Z,71.43
2022-08-24T15:30:56.858Z,60.05
2022-08-24T15:34:04.107Z,67.05
2022-08-24T15:37:07.742Z,66.85
2022-08-24T15:40:22.715Z,75.93
2022-08-24T15:43:28.216Z,74.55
2022-08-24T15:46:37.209Z,82.50
2022-08-24T15:53:00.172Z,63.50
2022-08-24T15:56:27.892Z,65.55
2022-08-24T15:59:33.413Z,61.10
2022-08-24T16:02:39.090Z,45.17
2022-08-24T16:05:51.160Z,54.28
2022-08-24T16:09:00.588Z,49.03
2022-08-24T16:12:07.558Z,48.93
2022-08-24T16:15:17.154Z,45.92
2022-08-24T16:18:22.239Z,45.10
2022-08-24T16:21:34.427Z,42.38
2022-08-24T16:24:40.283Z,49.47
2022-08-24T16:28:02.534Z,59.47
2022-08-24T16:31:09.850Z,55.33
2022-08-24T16:34:24.161Z,44.10
2022-08-24T16:37:29.534Z,46.72
2022-08-24T16:40:34.665Z,52.42
2022-08-24T16:43:40.576Z,46.53
2022-08-24T16:46:47.307Z,37.80
2022-08-24T16:49:52.753Z,46.33
2022-08-24T16:52:58.324Z,48.60
2022-08-24T16:56:04.675Z,49.78
2022-08-24T16:59:08.529Z,38.58
2022-08-24T17:02:13.005Z,46.47
2022-08-24T17:05:17.934Z,56.10
2022-08-24T17:08:23.165Z,49.92
2022-08-24T17:11:27.854Z,45.42
2022-08-24T17:14:31.792Z,48.38
2022-08-24T17:17:35.879Z,53.70
2022-08-24T17:20:39.886Z,59.17
2022-08-24T17:23:46.329Z,44.78
2022-08-24T17:26:51.021Z,53.20
2022-08-24T17:29:54.860Z,51.42
2022-08-24T17:32:59.334Z,49.20
2022-08-24T17:36:05.426Z,46.88
2022-08-24T17:39:13.642Z,43.05
2022-08-24T17:42:46.909Z,46.58
2022-08-24T17:45:42.666Z,37.00
2022-08-24T17:48:47.487Z,41.15
2022-08-24T17:51:51.247Z,41.70
2022-08-24T17:54:56.303Z,56.78
2022-08-24T17:58:00.066Z,48.97
2022-08-24T18:01:03.647Z,55.00
2022-08-24T18:04:07.187Z,42.53
2022-08-24T18:07:19.031Z,47.13
2022-08-24T18:10:33.800Z,48.00
2022-08-24T18:13:37.160Z,53.13
2022-08-24T18:16:40.873Z,47.15
2022-08-24T18:19:45.533Z,41.05
2022-08-24T18:22:52.842Z,53.08
2022-08-24T18:25:59.632Z,49.83
2022-08-24T18:29:10.017Z,56.03
2022-08-24T18:32:31.742Z,42.78
2022-08-24T18:35:37.390Z,52.55
2022-08-24T18:38:41.942Z,48.83
2022-08-24T18:41:49.670Z,47.40
2022-08-24T18:44:54.279Z,50.30
2022-08-24T18:47:57.562Z,34.45
2022-08-24T18:51:02.689Z,42.28
2022-08-24T18:54:09.102Z,40.22
2022-08-24T18:57:14.152Z,40.30
2022-08-24T19:00:18.261Z,41.35
2022-08-24T19:03:24.750Z,50.30
2022-08-24T19:06:30.484Z,38.72
2022-08-24T19:09:34.598Z,60.28
2022-08-24T19:12:46.823Z,34.83
2022-08-24T19:15:51.880Z,39.80
2022-08-24T19:18:55.982Z,34.92
2022-08-24T19:22:00.396Z,42.33
2022-08-24T19:25:05.250Z,33.05
2022-08-24T19:28:10.911Z,41.55
2022-08-24T19:31:15.440Z,35.50
2022-08-24T19:34:18.859Z,35.63
2022-08-24T19:37:24.345Z,40.00
2022-08-24T19:40:27.892Z,42.40
2022-08-24T19:43:34.947Z,34.33
2022-08-24T19:46:38.536Z,42.13
2022-08-24T19:49:42.275Z,33.30
2022-08-24T19:52:46.622Z,35.33
2022-08-24T19:55:50.571Z,41.13
2022-08-24T19:59:01.770Z,33.08
2022-08-24T20:02:05.701Z,34.83
2022-08-24T20:05:09.463Z,38.03
2022-08-24T20:08:13.013Z,35.47
2022-08-24T20:11:16.994Z,40.17
2022-08-24T20:14:23.422Z,42.15
2022-08-24T20:17:27.095Z,29.95
2022-08-24T20:20:32.878Z,31.05
2022-08-24T20:23:36.484Z,36.40
2022-08-24T20:26:43.575Z,32.47
2022-08-24T20:29:48.719Z,47.15
2022-08-24T20:32:53.088Z,26.98
2022-08-24T20:35:58.243Z,33.92
2022-08-24T20:39:03.196Z,35.70
2022-08-24T20:42:13.952Z,33.97
2022-08-24T20:45:20.767Z,38.28
2022-08-24T20:48:28.245Z,31.70
2022-08-24T20:51:31.714Z,40.33
2022-08-24T20:54:40.124Z,31.35
2022-08-24T20:57:48.733Z,30.13
2022-08-24T21:00:53.684Z,39.05
2022-08-24T21:04:01.501Z,29.42
2022-08-24T21:07:11.526Z,32.35
2022-08-24T21:10:15.665Z,26.80
2022-08-24T21:13:19.254Z,31.38
2022-08-24T21:16:24.320Z,33.70
2022-08-24T21:19:27.936Z,33.22
2022-08-24T21:22:31.399Z,24.67
2022-08-24T21:25:34.876Z,36.20
2022-08-24T21:28:40.756Z,31.60
2022-08-24T21:32:06.379Z,32.90
2022-08-24T21:35:08.871Z,41.17
2022-08-24T21:38:19.785Z,33.25
2022-08-24T21:41:24.678Z,37.78
2022-08-24T21:44:28.315Z,28.55
2022-08-24T21:47:33.249Z,33.30
2022-08-24T21:50:36.709Z,40.78
2022-08-24T21:53:39.982Z,33.17
2022-08-24T21:56:43.298Z,36.53
2022-08-24T21:59:46.761Z,34.80
2022-08-24T22:02:54.075Z,40.90
2022-08-24T22:05:57.427Z,39.50
2022-08-24T22:09:01.712Z,43.20
2022-08-24T22:12:05.761Z,32.67
2022-08-24T22:15:13.216Z,30.77
2022-08-24T22:18:18.307Z,43.25
2022-08-24T22:21:24.447Z,34.28
2022-08-24T22:24:27.792Z,34.15
2022-08-24T22:27:31.199Z,32.50
2022-08-24T22:30:36.156Z,35.15
2022-08-24T22:33:40.833Z,29.63
2022-08-24T22:36:45.282Z,32.97
2022-08-24T22:39:48.925Z,36.42
2022-08-24T22:42:52.254Z,35.85
2022-08-24T22:45:55.643Z,38.78
2022-08-24T22:49:01.164Z,33.85
2022-08-24T22:52:05.339Z,32.00
2022-08-24T22:55:09.952Z,33.30
2022-08-24T22:58:13.517Z,29.38
2022-08-24T23:01:21.071Z,32.80
2022-08-24T23:04:29.183Z,30.92
2022-08-24T23:07:32.724Z,29.13
2022-08-24T23:10:36.136Z,37.03
2022-08-24T23:13:40.077Z,30.75
2022-08-24T23:16:47.699Z,33.50
2022-08-24T23:20:04.897Z,33.85
2022-08-24T23:23:08.200Z,32.95
2022-08-24T23:26:18.137Z,33.17
2022-08-24T23:32:25.125Z,36.10
2022-08-24T23:35:29.965Z,33.85
2022-08-24T23:38:33.385Z,33.97
2022-08-24T23:41:39.583Z,27.65
2022-08-24T23:44:46.124Z,30.08
2022-08-24T23:47:49.386Z,31.13
2022-08-24T23:50:54.052Z,30.45
2022-08-24T23:53:57.359Z,34.47
2022-08-24T23:57:00.603Z,32.90
